Time;durP1;ratioP1;P1;durP2;ratioP2;P2;SDS_P1;SDS_P2;PMS_P1;PMS_P2;Temp;Humidity;BMP_temperature;BMP_pressure;BME280_temperature;BME280_humidity;BME280_pressure;Samples;Min_cycle;Max_cycle;Signal;HPM_P1;HPM_P2
2022/05/26 00:01:08;;;;;;;19.67;11.60;;;17.50;99.90;;;;;;5053806;28;20182;-59
2022/05/26 00:03:35;;;;;;;24.87;11.17;;;17.30;99.90;;;;;;5053239;28;20185;-60
2022/05/26 00:06:02;;;;;;;20.70;10.23;;;17.10;99.90;;;;;;5053796;28;20205;-62
2022/05/26 00:08:28;;;;;;;21.13;11.00;;;16.90;99.90;;;;;;5053288;28;20186;-62
2022/05/26 00:10:55;;;;;;;23.77;11.63;;;16.70;99.90;;;;;;5053314;28;20275;-61
2022/05/26 00:13:22;;;;;;;20.40;11.83;;;16.60;99.90;;;;;;5053418;28;20190;-61
2022/05/26 00:15:49;;;;;;;19.77;10.40;;;16.40;99.90;;;;;;5053651;28;20190;-61
2022/05/26 00:18:15;;;;;;;20.90;10.17;;;16.30;99.90;;;;;;5053238;28;20242;-61
2022/05/26 00:20:41;;;;;;;19.07;11.40;;;16.20;99.90;;;;;;5053182;28;20186;-62
2022/05/26 00:23:06;;;;;;;21.73;11.70;;;16.10;99.90;;;;;;5051791;28;20241;-62
2022/05/26 00:25:32;;;;;;;20.07;11.50;;;16.00;99.90;;;;;;5052952;28;20700;-61
2022/05/26 00:27:58;;;;;;;20.97;10.70;;;16.00;99.90;;;;;;5052937;28;20180;-61
2022/05/26 00:30:24;;;;;;;24.53;11.53;;;16.00;99.90;;;;;;5053387;28;20194;-62
2022/05/26 00:32:49;;;;;;;21.83;11.03;;;15.90;99.90;;;;;;5052897;28;20185;-61
2022/05/26 00:35:16;;;;;;;20.60;11.03;;;15.90;99.90;;;;;;5053247;28;20611;-63
2022/05/26 00:37:42;;;;;;;17.73;10.73;;;15.90;99.90;;;;;;5052881;28;20193;-61
2022/05/26 00:40:09;;;;;;;17.60;10.63;;;15.90;99.90;;;;;;5053219;28;20278;-61
2022/05/26 00:42:35;;;;;;;17.70;9.90;;;15.90;99.90;;;;;;5052744;28;20219;-61
2022/05/26 00:45:01;;;;;;;19.83;10.03;;;15.90;99.90;;;;;;5053016;28;20679;-61
2022/05/26 00:47:32;;;;;;;20.50;9.50;;;16.00;99.90;;;;;;5052558;28;20202;-61
2022/05/26 00:50:07;;;;;;;21.27;9.67;;;16.00;99.90;;;;;;5052762;28;20170;-61
2022/05/26 00:52:35;;;;;;;16.67;9.83;;;16.00;99.90;;;;;;5052542;28;20320;-61
2022/05/26 00:55:08;;;;;;;19.67;9.23;;;16.00;99.90;;;;;;5052909;28;20191;-61
2022/05/26 00:57:46;;;;;;;18.77;9.70;;;16.00;99.90;;;;;;5052309;28;20190;-61
2022/05/26 01:00:21;;;;;;;14.00;8.63;;;15.90;99.90;;;;;;5052882;28;20162;-61
2022/05/26 01:02:59;;;;;;;16.23;8.93;;;15.90;99.90;;;;;;5052471;28;20300;-61
2022/05/26 01:05:29;;;;;;;15.20;9.73;;;15.80;99.90;;;;;;5052546;28;20205;-61
2022/05/26 01:07:57;;;;;;;17.53;10.20;;;15.80;99.90;;;;;;5052700;28;20201;-60
2022/05/26 01:10:23;;;;;;;17.93;9.53;;;15.80;99.90;;;;;;5052577;28;20209;-60
2022/05/26 01:12:49;;;;;;;23.20;11.10;;;15.70;99.90;;;;;;5052163;28;20168;-59
2022/05/26 01:15:18;;;;;;;21.17;10.67;;;15.70;99.90;;;;;;5052245;28;20196;-60
2022/05/26 01:18:12;;;;;;;17.37;10.50;;;15.70;99.90;;;;;;5052155;28;20228;-60
2022/05/26 01:21:06;;;;;;;16.63;10.60;;;15.70;99.90;;;;;;5052268;28;20171;-60
2022/05/26 01:23:32;;;;;;;21.97;12.03;;;15.60;99.90;;;;;;5051495;28;20222;-60
2022/05/26 01:26:35;;;;;;;17.83;10.33;;;15.60;99.90;;;;;;5052302;28;20213;-59
2022/05/26 01:29:41;;;;;;;17.63;10.33;;;15.60;99.90;;;;;;5052131;28;20186;-59
2022/05/26 01:32:25;;;;;;;20.03;11.00;;;15.60;99.90;;;;;;5052335;28;20168;-59
2022/05/26 01:35:09;;;;;;;18.00;10.53;;;15.60;99.90;;;;;;5052079;28;20202;-59
2022/05/26 01:38:04;;;;;;;18.00;10.70;;;15.60;99.90;;;;;;5052073;28;20176;-59
2022/05/26 01:40:41;;;;;;;20.33;11.70;;;15.60;99.90;;;;;;5052144;28;20197;-60
2022/05/26 01:43:16;;;;;;;17.47;10.53;;;15.50;99.90;;;;;;5052321;28;20162;-59
2022/05/26 01:46:07;;;;;;;17.30;11.17;;;15.60;99.90;;;;;;5051955;28;20284;-60
2022/05/26 01:48:48;;;;;;;19.57;12.17;;;15.50;99.90;;;;;;5030829;28;20199;-60
2022/05/26 01:51:27;;;;;;;18.03;10.97;;;15.50;99.90;;;;;;5032225;28;20175;-60
2022/05/26 01:54:10;;;;;;;15.93;11.27;;;15.50;99.90;;;;;;5057908;28;20266;-61
2022/05/26 01:56:53;;;;;;;23.77;11.47;;;15.50;99.90;;;;;;5071851;28;20180;-61
2022/05/26 01:59:22;;;;;;;18.23;11.43;;;15.50;99.90;;;;;;5071511;28;20185;-61
2022/05/26 02:01:54;;;;;;;19.77;11.33;;;15.40;99.90;;;;;;5071507;28;20178;-60
2022/05/26 02:04:26;;;;;;;20.47;10.93;;;15.40;99.90;;;;;;5072868;28;20173;-60
2022/05/26 02:07:12;;;;;;;20.03;10.47;;;15.40;99.90;;;;;;5071638;28;20225;-61
2022/05/26 02:09:41;;;;;;;18.10;11.57;;;15.40;99.90;;;;;;5071644;28;20671;-60
2022/05/26 02:12:18;;;;;;;19.60;10.80;;;15.30;99.90;;;;;;5071908;28;20203;-60
2022/05/26 02:14:55;;;;;;;18.87;11.10;;;15.30;99.90;;;;;;5071317;28;20167;-60
2022/05/26 02:17:31;;;;;;;21.07;11.47;;;15.20;99.90;;;;;;5071868;28;20162;-61
2022/05/26 02:20:09;;;;;;;19.73;11.57;;;15.20;99.90;;;;;;5071680;28;20173;-61
2022/05/26 02:23:27;;;;;;;20.17;11.30;;;15.20;99.90;;;;;;5071504;28;20286;-61
2022/05/26 02:25:54;;;;;;;21.13;12.40;;;15.20;99.90;;;;;;5060408;28;20227;-61
2022/05/26 02:28:20;;;;;;;23.67;12.33;;;15.30;99.90;;;;;;5071563;28;20553;-61
2022/05/26 02:30:47;;;;;;;14.30;8.33;;;15.30;99.90;;;;;;5071036;28;20197;-61
2022/05/26 02:33:15;;;;;;;14.10;10.20;;;15.20;99.90;;;;;;5071459;28;20193;-61
2022/05/26 02:35:44;;;;;;;15.93;9.33;;;15.10;99.90;;;;;;5075069;28;20182;-61
2022/05/26 02:38:13;;;;;;;15.00;9.07;;;14.90;99.90;;;;;;5075369;28;20233;-62
2022/05/26 02:40:38;;;;;;;11.57;8.00;;;14.70;99.90;;;;;;5075099;28;20174;-61
2022/05/26 02:43:26;;;;;;;12.97;8.73;;;14.70;99.90;;;;;;5075236;28;20186;-61
2022/05/26 02:46:11;;;;;;;10.77;7.97;;;14.60;99.90;;;;;;5074930;28;20272;-61
2022/05/26 02:48:45;;;;;;;12.73;8.50;;;14.50;99.90;;;;;;5035124;28;20213;-61
2022/05/26 02:51:23;;;;;;;12.17;7.90;;;14.50;99.90;;;;;;5035010;28;20179;-61
2022/05/26 02:54:16;;;;;;;13.63;6.60;;;14.50;99.90;;;;;;5059590;28;20261;-59
2022/05/26 02:57:00;;;;;;;10.60;6.87;;;14.50;99.90;;;;;;5074721;28;20169;-59
2022/05/26 02:59:26;;;;;;;9.43;6.30;;;14.50;99.90;;;;;;5075093;28;20173;-60
2022/05/26 03:02:05;;;;;;;10.37;6.90;;;14.50;99.90;;;;;;5074732;28;20192;-59
2022/05/26 03:04:39;;;;;;;9.90;6.00;;;14.50;99.90;;;;;;5074526;28;20189;-60
2022/05/26 03:07:12;;;;;;;11.30;7.47;;;14.40;99.90;;;;;;5074877;28;20178;-59
2022/05/26 03:09:40;;;;;;;8.17;6.10;;;14.40;99.90;;;;;;5074378;28;20571;-60
2022/05/26 03:12:21;;;;;;;9.07;6.60;;;14.40;99.90;;;;;;5074755;28;20323;-60
2022/05/26 03:14:47;;;;;;;7.37;5.77;;;14.40;99.90;;;;;;5073016;28;20184;-60
2022/05/26 03:17:12;;;;;;;8.47;4.47;;;14.40;99.90;;;;;;5074751;28;20181;-60
2022/05/26 03:19:38;;;;;;;7.33;4.50;;;14.40;99.90;;;;;;5074367;28;20655;-59
2022/05/26 03:22:04;;;;;;;11.57;6.27;;;14.40;99.90;;;;;;5074439;28;20240;-59
2022/05/26 03:24:30;;;;;;;7.07;5.60;;;14.30;99.90;;;;;;5074550;28;20236;-59
2022/05/26 03:26:55;;;;;;;9.60;5.57;;;14.30;99.90;;;;;;5073925;28;20227;-58
2022/05/26 03:29:21;;;;;;;6.40;4.93;;;14.30;99.90;;;;;;5074276;28;20234;-59
2022/05/26 03:31:47;;;;;;;6.87;4.47;;;14.30;99.90;;;;;;5073942;28;20231;-59
2022/05/26 03:42:26;;;;;;;7.33;4.10;;;13.90;99.90;;;;;;5073951;28;20181;-59
2022/05/26 03:44:52;;;;;;;4.53;3.47;;;13.90;99.90;;;;;;5073547;28;20277;-58
2022/05/26 03:47:18;;;;;;;5.13;3.97;;;13.80;99.90;;;;;;5061047;28;20230;-59
2022/05/26 03:49:44;;;;;;;4.77;3.73;;;13.70;99.90;;;;;;5053494;28;20202;-59
2022/05/26 03:52:10;;;;;;;4.63;2.97;;;13.60;99.90;;;;;;5053470;28;20185;-59
2022/05/26 03:54:36;;;;;;;5.20;3.10;;;13.60;99.90;;;;;;5071992;28;20257;-59
2022/05/26 03:57:03;;;;;;;5.00;3.30;;;13.60;99.90;;;;;;5073251;28;20199;-58
2022/05/26 03:59:30;;;;;;;3.47;2.50;;;13.50;99.90;;;;;;5073369;28;20277;-58
2022/05/26 04:01:56;;;;;;;3.37;2.50;;;13.50;99.90;;;;;;5071866;28;20635;-57
2022/05/26 04:04:21;;;;;;;3.30;2.37;;;13.50;99.90;;;;;;5073430;28;20182;-58
2022/05/26 04:06:48;;;;;;;3.07;1.53;;;13.50;99.90;;;;;;5072829;28;20240;-58
2022/05/26 04:09:14;;;;;;;2.13;1.30;;;13.40;99.90;;;;;;5073378;28;20185;-58
2022/05/26 04:11:40;;;;;;;2.23;1.30;;;13.30;99.90;;;;;;5072991;28;20190;-58
2022/05/26 04:14:06;;;;;;;1.17;0.93;;;13.30;99.90;;;;;;5073499;28;20184;-59
2022/05/26 04:16:31;;;;;;;2.03;1.47;;;13.20;99.90;;;;;;5072901;28;20649;-59
2022/05/26 04:18:57;;;;;;;1.63;1.10;;;13.20;99.90;;;;;;5072939;28;20188;-59
2022/05/26 04:21:23;;;;;;;4.57;1.30;;;13.20;99.90;;;;;;5054704;28;20192;-59
2022/05/26 04:23:49;;;;;;;2.53;1.40;;;13.20;99.90;;;;;;5072691;28;20251;-58
2022/05/26 04:26:14;;;;;;;4.57;1.27;;;13.20;99.90;;;;;;5072847;28;20216;-59
2022/05/26 04:28:40;;;;;;;2.70;1.67;;;13.20;99.90;;;;;;5072726;28;20534;-59
2022/05/26 04:31:06;;;;;;;4.37;1.90;;;13.20;99.90;;;;;;5072259;28;20224;-59
2022/05/26 04:33:33;;;;;;;2.40;2.00;;;13.30;99.90;;;;;;5072581;28;20198;-59
2022/05/26 04:36:01;;;;;;;3.73;2.13;;;13.30;99.90;;;;;;5072454;28;20188;-58
2022/05/26 04:38:27;;;;;;;3.90;1.73;;;13.30;99.90;;;;;;5073259;28;20174;-59
2022/05/26 04:41:01;;;;;;;4.47;1.47;;;13.20;99.90;;;;;;5071820;28;20189;-60
2022/05/26 04:43:27;;;;;;;3.17;1.43;;;13.20;99.90;;;;;;5072099;28;20233;-58
2022/05/26 04:45:53;;;;;;;2.37;1.60;;;13.00;99.90;;;;;;5060193;28;20213;-61
2022/05/26 04:48:21;;;;;;;1.40;1.00;;;12.90;99.90;;;;;;5051680;28;20269;-59
2022/05/26 04:50:49;;;;;;;2.47;1.50;;;12.80;99.90;;;;;;5049775;28;20598;-58
2022/05/26 04:53:15;;;;;;;3.47;1.60;;;12.70;99.90;;;;;;5054032;28;20769;-59
2022/05/26 04:55:41;;;;;;;3.27;1.50;;;12.70;99.90;;;;;;5051364;28;20185;-58
2022/05/26 04:58:07;;;;;;;2.73;1.70;;;12.70;99.90;;;;;;5051482;28;20196;-59
2022/05/26 05:00:33;;;;;;;4.43;2.23;;;12.60;99.90;;;;;;5051444;28;20185;-59
2022/05/26 05:02:59;;;;;;;3.90;2.13;;;12.70;99.90;;;;;;5051453;28;20300;-60
2022/05/26 05:05:25;;;;;;;4.23;2.17;;;12.70;99.90;;;;;;5051453;28;20649;-60
2022/05/26 05:07:51;;;;;;;2.47;1.67;;;12.70;99.90;;;;;;5051667;28;20246;-62
2022/05/26 05:10:16;;;;;;;3.13;1.90;;;12.70;99.90;;;;;;5047117;28;20200;-61
2022/05/26 05:12:43;;;;;;;4.13;1.50;;;12.70;99.90;;;;;;5052196;28;20194;-61
2022/05/26 05:15:19;;;;;;;7.97;2.00;;;12.70;99.90;;;;;;5051460;28;20206;-65
2022/05/26 05:17:45;;;;;;;2.40;1.33;;;12.60;99.90;;;;;;5067550;28;20235;-64
2022/05/26 05:20:11;;;;;;;4.23;2.23;;;12.60;99.90;;;;;;5049340;28;20552;-63
2022/05/26 05:22:44;;;;;;;2.60;2.17;;;12.60;99.90;;;;;;5057607;28;20232;-63
2022/05/26 05:25:20;;;;;;;4.07;2.70;;;12.50;99.90;;;;;;5059462;28;20617;-62
2022/05/26 05:28:01;;;;;;;4.63;2.10;;;12.50;99.90;;;;;;5050397;28;20198;-60
2022/05/26 05:30:32;;;;;;;6.03;2.73;;;12.60;99.90;;;;;;5051732;28;20264;-64
2022/05/26 05:33:09;;;;;;;5.77;2.50;;;12.70;99.90;;;;;;5051630;28;20192;-60
2022/05/26 05:36:02;;;;;;;7.60;3.23;;;12.70;99.90;;;;;;5053629;28;20197;-63
2022/05/26 05:38:28;;;;;;;20.37;4.20;;;12.70;99.90;;;;;;5064818;28;20589;-61
2022/05/26 05:40:54;;;;;;;10.27;3.03;;;12.60;99.90;;;;;;5070149;28;20582;-62
2022/05/26 05:43:20;;;;;;;11.40;3.17;;;12.70;99.90;;;;;;5070791;28;20190;-62
2022/05/26 05:45:46;;;;;;;16.47;5.00;;;12.70;99.90;;;;;;5048080;28;20535;-66
2022/05/26 05:48:12;;;;;;;6.47;3.40;;;12.80;99.90;;;;;;5064969;28;20188;-62
2022/05/26 05:50:38;;;;;;;15.50;3.80;;;12.80;99.90;;;;;;5062421;28;20245;-60
2022/05/26 05:53:04;;;;;;;7.23;3.47;;;12.80;99.90;;;;;;5064551;28;20217;-60
2022/05/26 05:55:31;;;;;;;8.47;4.80;;;12.90;99.90;;;;;;5063819;28;20197;-59
2022/05/26 05:57:57;;;;;;;7.23;5.10;;;12.90;99.90;;;;;;5064461;28;20177;-62
2022/05/26 06:00:23;;;;;;;30.73;7.37;;;13.00;99.90;;;;;;5071136;28;20177;-66
2022/05/26 06:02:48;;;;;;;27.50;9.50;;;13.00;99.90;;;;;;5065909;28;20759;-63
2022/05/26 06:05:14;;;;;;;19.03;7.67;;;13.00;99.90;;;;;;5068934;28;20288;-64
2022/05/26 06:07:41;;;;;;;35.03;9.53;;;13.10;99.90;;;;;;5056832;28;20241;-65
2022/05/26 06:10:10;;;;;;;40.23;9.67;;;13.30;99.90;;;;;;5058977;28;20370;-63
2022/05/26 06:12:36;;;;;;;13.23;7.47;;;13.40;99.90;;;;;;5064504;28;20219;-63
2022/05/26 06:15:02;;;;;;;17.77;7.20;;;13.40;99.90;;;;;;5074657;28;20185;-60
2022/05/26 06:17:28;;;;;;;19.37;7.47;;;13.40;99.90;;;;;;5064080;28;20192;-60
2022/05/26 06:19:53;;;;;;;13.83;7.13;;;13.40;99.90;;;;;;5055865;28;20184;-62
2022/05/26 06:22:21;;;;;;;19.70;7.00;;;13.60;99.90;;;;;;5072444;28;20209;-63
2022/05/26 06:24:48;;;;;;;30.77;8.57;;;13.70;99.90;;;;;;5072125;28;20181;-60
2022/05/26 06:30:01;;;;;;;25.83;6.87;;;13.90;99.90;;;;;;5066677;28;20205;-61
2022/05/26 06:37:58;;;;;;;21.67;7.10;;;13.70;99.90;;;;;;5035417;28;20173;-61
2022/05/26 06:40:24;;;;;;;14.50;7.50;;;13.70;99.90;;;;;;5034019;28;20228;-62
2022/05/26 06:42:50;;;;;;;20.17;7.60;;;13.60;99.90;;;;;;5033468;28;20269;-61
2022/05/26 06:45:20;;;;;;;12.50;6.97;;;13.50;99.90;;;;;;5034386;28;20199;-61
2022/05/26 06:47:45;;;;;;;21.90;8.90;;;13.40;99.90;;;;;;5033776;28;20190;-63
2022/05/26 06:50:11;;;;;;;20.50;8.53;;;13.40;99.90;;;;;;5043794;28;20183;-61
2022/05/26 06:52:37;;;;;;;25.23;8.63;;;13.60;99.90;;;;;;5055820;28;20613;-61
2022/05/26 06:55:07;;;;;;;13.33;8.63;;;13.80;99.90;;;;;;5073492;28;20222;-60
2022/05/26 06:57:33;;;;;;;20.20;8.37;;;14.00;99.90;;;;;;5072725;28;20182;-61
2022/05/26 07:00:00;;;;;;;18.30;8.50;;;14.40;99.90;;;;;;5071451;28;20498;-61
2022/05/26 07:02:26;;;;;;;12.87;7.63;;;14.50;99.90;;;;;;5073476;28;20185;-61
2022/05/26 07:04:53;;;;;;;15.93;8.70;;;14.60;99.90;;;;;;5073447;28;20247;-62
2022/05/26 07:07:18;;;;;;;15.73;6.17;;;14.80;99.90;;;;;;5073903;28;20265;-60
2022/05/26 07:09:44;;;;;;;12.20;7.90;;;14.90;99.90;;;;;;5073513;28;20567;-62
2022/05/26 07:12:11;;;;;;;11.10;7.37;;;14.80;99.90;;;;;;5054070;28;20183;-61
2022/05/26 07:14:37;;;;;;;12.67;6.60;;;14.80;99.90;;;;;;5053707;28;20198;-61
2022/05/26 07:17:03;;;;;;;6.40;4.70;;;15.00;99.90;;;;;;5053149;28;20184;-61
2022/05/26 07:19:33;;;;;;;17.23;7.53;;;15.10;99.90;;;;;;5050945;28;20580;-61
2022/05/26 07:21:59;;;;;;;11.10;5.90;;;15.30;99.90;;;;;;5051853;28;20187;-62
2022/05/26 07:24:25;;;;;;;9.90;6.13;;;15.40;99.90;;;;;;5052963;28;20271;-61
2022/05/26 07:26:52;;;;;;;9.30;6.77;;;15.70;99.90;;;;;;5053037;28;20210;-63
2022/05/26 07:29:18;;;;;;;11.10;5.97;;;15.60;99.90;;;;;;5053713;28;20323;-61
2022/05/26 07:31:44;;;;;;;11.20;6.33;;;15.60;99.90;;;;;;5051906;28;20185;-62
2022/05/26 07:34:11;;;;;;;6.80;5.10;;;15.60;99.90;;;;;;5053290;28;20172;-63
2022/05/26 07:42:09;;;;;;;7.87;5.27;;;16.10;99.90;;;;;;5052149;28;20200;-62
2022/05/26 07:44:39;;;;;;;14.57;3.50;;;16.70;99.90;;;;;;5051813;28;20602;-61
2022/05/26 07:47:07;;;;;;;27.43;4.90;;;16.90;99.90;;;;;;5052944;28;20190;-62
2022/05/26 07:49:34;;;;;;;9.43;4.23;;;17.10;99.90;;;;;;5051193;28;20214;-61
2022/05/26 07:52:01;;;;;;;6.90;3.93;;;17.10;99.90;;;;;;5052523;28;20205;-61
2022/05/26 07:54:31;;;;;;;8.03;3.97;;;16.80;99.90;;;;;;5070246;28;20533;-62
2022/05/26 07:56:58;;;;;;;6.57;3.33;;;16.90;99.90;;;;;;5072459;28;20183;-62
2022/05/26 07:59:24;;;;;;;5.03;2.67;;;17.00;99.90;;;;;;5072473;28;20181;-62
2022/05/26 08:01:50;;;;;;;5.50;3.43;;;16.80;99.90;;;;;;5072376;28;20209;-63
2022/05/26 08:04:16;;;;;;;18.73;3.53;;;16.60;99.90;;;;;;5072552;28;20182;-62
2022/05/26 08:06:46;;;;;;;6.30;2.70;;;16.70;99.90;;;;;;5072218;28;20363;-64
2022/05/26 08:09:17;;;;;;;6.43;2.87;;;16.70;99.90;;;;;;5072588;28;20258;-64
2022/05/26 08:11:44;;;;;;;6.07;4.00;;;16.80;99.90;;;;;;5057489;28;20174;-64
2022/05/26 08:14:10;;;;;;;10.23;4.10;;;16.50;99.90;;;;;;5052604;28;20627;-62
2022/05/26 08:16:36;;;;;;;7.60;4.47;;;16.60;99.90;;;;;;5052839;28;20276;-64
2022/05/26 08:19:03;;;;;;;21.37;6.13;;;16.70;99.90;;;;;;5051725;28;20182;-64
2022/05/26 08:21:29;;;;;;;5.70;4.40;;;16.70;99.90;;;;;;5052411;28;20193;-65
2022/05/26 08:23:55;;;;;;;8.33;3.50;;;16.80;99.90;;;;;;5051761;28;20276;-66
2022/05/26 08:26:21;;;;;;;8.50;4.10;;;16.80;99.90;;;;;;5052070;28;20214;-65
2022/05/26 08:28:47;;;;;;;6.97;4.10;;;16.70;99.90;;;;;;5052067;28;20197;-65
2022/05/26 08:31:13;;;;;;;22.97;4.50;;;16.70;99.90;;;;;;5034214;28;20189;-62
2022/05/26 08:33:40;;;;;;;15.13;4.77;;;17.00;99.90;;;;;;5051303;28;20634;-64
2022/05/26 08:36:12;;;;;;;6.73;3.87;;;17.30;99.90;;;;;;5051643;28;20190;-65
2022/05/26 08:38:39;;;;;;;4.80;3.40;;;17.20;99.90;;;;;;5051749;28;20582;-65
2022/05/26 08:41:06;;;;;;;6.43;3.13;;;17.40;99.90;;;;;;5050247;28;20591;-65
2022/05/26 08:43:39;;;;;;;4.27;3.03;;;17.50;99.90;;;;;;5051500;28;20182;-64
2022/05/26 08:46:08;;;;;;;8.90;3.67;;;17.40;99.90;;;;;;5051893;28;20552;-64
2022/05/26 08:48:43;;;;;;;8.67;4.13;;;17.50;99.90;;;;;;5051505;28;20182;-64
2022/05/26 08:51:15;;;;;;;6.10;3.23;;;17.60;99.90;;;;;;5051598;28;20272;-69
2022/05/26 08:53:41;;;;;;;5.27;3.40;;;17.70;99.90;;;;;;5062900;28;20645;-64
2022/05/26 08:56:15;;;;;;;6.33;3.10;;;18.00;99.90;;;;;;5071259;28;20188;-64
2022/05/26 08:58:49;;;;;;;4.73;3.10;;;17.90;99.90;;;;;;5071364;28;20158;-63
2022/05/26 09:01:19;;;;;;;4.60;2.57;;;17.80;99.90;;;;;;5071291;28;20235;-66
2022/05/26 09:03:45;;;;;;;11.27;2.77;;;17.90;99.90;;;;;;5070613;28;20311;-64
2022/05/26 09:06:17;;;;;;;2.93;2.10;;;17.90;99.90;;;;;;5070203;28;20669;-64
2022/05/26 09:14:34;;;;;;;4.00;2.10;;;18.10;99.90;;;;;;5051395;28;20674;-64
2022/05/26 09:17:08;;;;;;;5.87;3.40;;;18.30;99.90;;;;;;5050597;28;20174;-64
2022/05/26 09:19:43;;;;;;;5.73;2.93;;;18.40;99.90;;;;;;5050776;28;20181;-64
2022/05/26 09:22:32;;;;;;;9.43;3.00;;;18.20;99.90;;;;;;5050969;28;20211;-64
2022/05/26 09:24:59;;;;;;;5.13;2.93;;;18.30;99.90;;;;;;5050759;28;20202;-64
2022/05/26 09:27:36;;;;;;;2.87;2.03;;;18.40;99.90;;;;;;5050655;28;20210;-66
2022/05/26 09:30:23;;;;;;;6.10;3.30;;;18.50;99.90;;;;;;5050875;28;20614;-64
2022/05/26 09:32:49;;;;;;;5.03;2.93;;;18.50;99.90;;;;;;5050480;28;20232;-63
2022/05/26 09:35:35;;;;;;;5.67;3.07;;;18.60;99.90;;;;;;5050974;28;20218;-64
2022/05/26 09:38:05;;;;;;;5.57;2.63;;;18.80;99.90;;;;;;5050512;28;20194;-63
2022/05/26 09:40:35;;;;;;;4.90;3.00;;;18.60;99.90;;;;;;5033386;28;20182;-64
2022/05/26 09:43:03;;;;;;;5.13;2.00;;;18.80;99.90;;;;;;5050916;28;20185;-64
2022/05/26 09:45:40;;;;;;;6.77;2.53;;;18.80;98.00;;;;;;5050544;28;20206;-64
2022/05/26 09:48:20;;;;;;;3.40;2.70;;;18.80;98.50;;;;;;5049237;28;20182;-64
2022/05/26 09:50:52;;;;;;;4.43;2.37;;;18.80;99.00;;;;;;5050484;28;20300;-63
2022/05/26 09:53:38;;;;;;;6.20;2.30;;;18.90;98.00;;;;;;5058598;28;20178;-65
2022/05/26 09:56:05;;;;;;;2.53;2.00;;;19.00;98.10;;;;;;5070161;28;20162;-65
2022/05/26 09:58:41;;;;;;;2.85;1.90;;;19.10;97.40;;;;;;5070447;28;20178;-65
2022/05/26 10:01:16;;;;;;;4.17;2.40;;;19.10;97.80;;;;;;5070293;28;20165;-64
2022/05/26 10:03:49;;;;;;;6.80;2.30;;;19.30;97.30;;;;;;5068814;28;20228;-65
2022/05/26 10:06:30;;;;;;;5.40;2.20;;;19.40;96.80;;;;;;5070012;28;20569;-63
2022/05/26 10:09:32;;;;;;;3.63;1.65;;;19.50;95.20;;;;;;5070335;28;20173;-65
2022/05/26 10:12:04;;;;;;;4.90;2.45;;;19.60;95.30;;;;;;5053189;28;20173;-64
2022/05/26 10:14:35;;;;;;;3.80;2.03;;;19.70;95.20;;;;;;5050136;28;20254;-64
2022/05/26 10:17:33;;;;;;;5.22;2.00;;;19.70;95.40;;;;;;5049982;28;20182;-65
2022/05/26 10:20:25;;;;;;;2.28;1.27;;;19.90;95.10;;;;;;5050158;28;20243;-64
2022/05/26 10:22:51;;;;;;;3.25;1.65;;;19.90;92.00;;;;;;5048519;28;20226;-64
2022/05/26 10:25:41;;;;;;;3.03;2.20;;;19.90;90.80;;;;;;5049587;28;20206;-64
2022/05/26 10:28:16;;;;;;;3.83;1.60;;;19.80;90.50;;;;;;5050111;28;20279;-64
2022/05/26 10:31:00;;;;;;;7.20;1.92;;;19.90;90.80;;;;;;5048876;28;20185;-64
2022/05/26 10:33:49;;;;;;;4.32;2.10;;;20.10;90.60;;;;;;5049713;28;20548;-63
2022/05/26 10:36:23;;;;;;;5.97;2.05;;;20.10;90.30;;;;;;5041784;28;20285;-63
2022/05/26 10:39:10;;;;;;;3.00;1.55;;;20.30;91.50;;;;;;5029517;28;20627;-65
2022/05/26 10:41:46;;;;;;;3.10;1.23;;;20.30;84.60;;;;;;5027969;28;20186;-63
2022/05/26 10:44:36;;;;;;;8.75;1.67;;;20.20;85.80;;;;;;5029105;28;20171;-64
2022/05/26 10:47:27;;;;;;;3.45;1.20;;;20.30;85.00;;;;;;5028550;28;20207;-64
2022/05/26 10:50:06;;;;;;;2.28;1.38;;;20.30;85.20;;;;;;5036147;28;20583;-64
2022/05/26 10:52:47;;;;;;;6.25;2.00;;;20.50;86.20;;;;;;5051403;28;20185;-64
2022/05/26 10:55:26;;;;;;;3.70;2.00;;;20.70;87.70;;;;;;5069910;28;20176;-63
2022/05/26 10:58:02;;;;;;;2.95;1.88;;;21.00;88.80;;;;;;5073337;28;20215;-64
2022/05/26 11:00:30;;;;;;;4.97;1.70;;;21.10;87.70;;;;;;5073825;28;20169;-64
2022/05/26 11:03:14;;;;;;;3.35;1.98;;;21.40;90.90;;;;;;5072902;28;20181;-64
2022/05/26 11:06:03;;;;;;;3.80;1.40;;;21.50;87.80;;;;;;5072820;28;20582;-64
2022/05/26 11:08:41;;;;;;;3.70;1.58;;;21.70;83.80;;;;;;5073583;28;20181;-63
2022/05/26 11:11:37;;;;;;;51.80;3.72;;;21.80;79.90;;;;;;5063118;28;20228;-63
2022/05/26 11:17:44;;;;;;;1.23;1.02;;;22.40;73.20;;;;;;5030676;28;20325;-63
2022/05/26 11:20:21;;;;;;;1.73;1.30;;;22.60;74.00;;;;;;5030124;28;20656;-63
2022/05/26 11:22:48;;;;;;;4.85;1.50;;;23.10;73.00;;;;;;5045257;28;20253;-63
2022/05/26 11:25:19;;;;;;;7.32;1.88;;;24.50;70.30;;;;;;5052604;28;20198;-64
2022/05/26 11:28:10;;;;;;;3.85;1.27;;;26.20;65.60;;;;;;5053080;28;20163;-63
2022/05/26 11:37:17;;;;;;;1.80;1.20;;;29.30;55.60;;;;;;5052610;28;20197;-64
2022/05/26 11:39:45;;;;;;;3.17;1.67;;;30.30;50.50;;;;;;5052961;28;20173;-64
2022/05/26 11:42:24;;;;;;;2.67;1.20;;;30.10;49.20;;;;;;5052254;28;20182;-63
2022/05/26 11:45:12;;;;;;;2.78;1.40;;;29.60;48.90;;;;;;5053153;28;20221;-63
2022/05/26 11:47:47;;;;;;;1.75;1.00;;;30.50;50.10;;;;;;5052699;28;20520;-64
2022/05/26 11:50:31;;;;;;;2.20;1.60;;;30.70;47.90;;;;;;5052924;28;20201;-65
2022/05/26 11:52:59;;;;;;;3.53;1.17;;;30.70;47.90;;;;;;5057063;28;20262;-63
2022/05/26 11:55:52;;;;;;;2.08;1.38;;;30.40;46.90;;;;;;5074166;28;20216;-65
2022/05/26 11:58:41;;;;;;;3.97;1.30;;;29.90;47.90;;;;;;5072517;28;20182;-63
2022/05/26 12:01:25;;;;;;;1.38;0.95;;;29.60;48.00;;;;;;5072260;28;20200;-66
2022/05/26 12:04:05;;;;;;;2.72;1.02;;;29.40;47.00;;;;;;5072671;28;20858;-64
2022/05/26 12:06:35;;;;;;;3.92;1.40;;;29.80;47.80;;;;;;5071798;28;20209;-63
2022/05/26 12:09:28;;;;;;;1.38;0.77;;;30.20;47.00;;;;;;5066311;28;20285;-64
2022/05/26 12:12:15;;;;;;;2.40;1.05;;;30.80;46.00;;;;;;5051973;28;20174;-64
2022/05/26 12:15:14;;;;;;;2.53;1.30;;;30.80;44.40;;;;;;5052194;28;20212;-65
2022/05/26 12:17:48;;;;;;;58.05;4.63;;;32.50;44.50;;;;;;5052106;28;20236;-64
2022/05/26 12:20:14;;;;;;;3.42;0.88;;;33.50;41.20;;;;;;5052676;28;20161;-65
2022/05/26 12:22:52;;;;;;;21.25;2.20;;;33.20;40.40;;;;;;5051434;28;20245;-64
2022/05/26 12:25:29;;;;;;;4.68;1.30;;;33.90;39.10;;;;;;5052508;28;20618;-64
2022/05/26 12:28:04;;;;;;;1.55;0.90;;;34.00;39.90;;;;;;5051095;28;20174;-63
2022/05/26 12:30:45;;;;;;;4.35;1.25;;;34.50;37.80;;;;;;5051269;28;20158;-64
2022/05/26 12:33:16;;;;;;;0.88;0.80;;;33.60;38.30;;;;;;5051065;28;20293;-64
2022/05/26 12:36:11;;;;;;;2.17;0.88;;;34.20;37.80;;;;;;5051305;28;20286;-63
2022/05/26 12:38:46;;;;;;;3.75;0.93;;;34.80;36.70;;;;;;5051071;28;20166;-64
2022/05/26 12:41:49;;;;;;;3.17;1.08;;;34.40;35.40;;;;;;5051290;28;20595;-63
2022/05/26 12:44:53;;;;;;;4.25;1.00;;;31.00;37.30;;;;;;5051481;28;20170;-63
2022/05/26 12:47:36;;;;;;;7.30;1.25;;;28.10;43.00;;;;;;5049906;28;20642;-64
2022/05/26 12:50:10;;;;;;;7.93;1.50;;;27.60;44.80;;;;;;5050825;28;20187;-63
2022/05/26 12:52:38;;;;;;;2.13;1.00;;;28.30;42.60;;;;;;5054138;28;20170;-64
2022/05/26 12:55:20;;;;;;;3.42;1.08;;;29.70;42.50;;;;;;5070643;28;20609;-63
2022/05/26 12:58:08;;;;;;;10.20;2.53;;;30.80;41.20;;;;;;5071152;28;20597;-64
2022/05/26 13:00:37;;;;;;;7.57;1.02;;;33.20;38.30;;;;;;5071482;28;20652;-64
2022/05/26 13:03:28;;;;;;;2.75;1.55;;;33.70;36.60;;;;;;5070880;28;20182;-63
2022/05/26 13:06:01;;;;;;;1.95;1.10;;;34.30;37.20;;;;;;5050737;28;20258;-65
2022/05/26 13:08:31;;;;;;;3.88;1.25;;;35.00;35.20;;;;;;5071643;28;20227;-64
2022/05/26 13:10:59;;;;;;;3.22;0.95;;;35.90;34.10;;;;;;5039100;28;20177;-63
2022/05/26 13:13:36;;;;;;;4.57;1.50;;;36.80;34.00;;;;;;5048805;28;20178;-63
2022/05/26 13:16:29;;;;;;;8.55;1.40;;;37.90;32.60;;;;;;5050457;28;20204;-63
2022/05/26 13:19:04;;;;;;;6.00;1.27;;;37.70;32.00;;;;;;5049957;28;20193;-63
2022/05/26 13:21:31;;;;;;;6.18;1.85;;;37.50;31.70;;;;;;5050797;28;20174;-64
2022/05/26 13:23:56;;;;;;;8.00;1.90;;;38.70;31.90;;;;;;5050031;28;20308;-65
2022/05/26 13:26:23;;;;;;;2.65;1.52;;;40.00;30.40;;;;;;5050637;28;20297;-63
2022/05/26 13:28:55;;;;;;;2.67;1.10;;;39.70;29.80;;;;;;5050636;28;20227;-63
2022/05/26 13:34:09;;;;;;;2.38;1.42;;;40.00;29.60;;;;;;5049184;28;20201;-65
2022/05/26 13:36:40;;;;;;;1.10;0.82;;;40.60;29.20;;;;;;5049550;28;20190;-63
2022/05/26 13:39:24;;;;;;;8.32;1.55;;;39.20;29.70;;;;;;5049980;28;20189;-64
2022/05/26 13:41:53;;;;;;;2.78;1.20;;;38.80;29.90;;;;;;5051026;28;20178;-64
2022/05/26 13:44:43;;;;;;;6.95;1.10;;;39.10;30.40;;;;;;5050322;28;20440;-64
2022/05/26 13:47:12;;;;;;;4.47;1.40;;;39.30;29.30;;;;;;5050358;28;20206;-63
2022/05/26 13:49:44;;;;;;;1.42;0.90;;;39.60;29.30;;;;;;5050845;28;20166;-64